createdAt,value
2019-03-08T00:01:09.071Z,5.70
2019-03-08T00:03:38.851Z,5.58
2019-03-08T00:06:08.472Z,6.28
2019-03-08T00:08:38.181Z,5.50
2019-03-08T00:11:07.791Z,5.92
2019-03-08T00:13:37.499Z,6.00
2019-03-08T00:16:07.200Z,5.08
2019-03-08T00:18:36.825Z,5.78
2019-03-08T00:21:06.521Z,5.60
2019-03-08T00:23:36.592Z,5.25
2019-03-08T00:26:06.250Z,5.92
2019-03-08T00:28:35.873Z,5.70
2019-03-08T00:31:05.577Z,6.15
2019-03-08T00:33:35.186Z,5.30
2019-03-08T00:36:04.886Z,5.65
2019-03-08T00:38:34.512Z,5.58
2019-03-08T00:41:04.214Z,5.87
2019-03-08T00:43:33.915Z,5.70
2019-03-08T00:46:03.636Z,5.78
2019-03-08T00:48:33.333Z,5.53
2019-03-08T00:51:03.169Z,5.40
2019-03-08T00:53:32.868Z,5.55
2019-03-08T00:56:02.502Z,5.60
2019-03-08T00:58:32.180Z,5.45
2019-03-08T01:01:01.814Z,5.62
2019-03-08T01:03:31.499Z,5.83
2019-03-08T01:06:01.217Z,5.40
2019-03-08T01:08:30.841Z,5.65
2019-03-08T01:11:00.542Z,5.67
2019-03-08T01:13:30.164Z,6.00
2019-03-08T01:15:59.904Z,5.58
2019-03-08T01:18:29.688Z,5.65
2019-03-08T01:20:59.382Z,5.42
2019-03-08T01:23:29.020Z,5.83
2019-03-08T01:25:58.697Z,5.92
2019-03-08T01:28:28.555Z,5.45
2019-03-08T01:30:58.335Z,5.28
2019-03-08T01:33:28.038Z,5.70
2019-03-08T01:35:57.739Z,5.33
2019-03-08T01:38:27.459Z,5.35
2019-03-08T01:40:57.086Z,5.70
2019-03-08T01:43:26.775Z,5.42
2019-03-08T01:45:56.495Z,5.45
2019-03-08T01:48:26.348Z,4.97
2019-03-08T01:50:55.940Z,5.85
2019-03-08T01:53:25.610Z,5.30
2019-03-08T01:55:55.247Z,5.00
2019-03-08T01:58:25.245Z,5.53
2019-03-08T02:00:54.875Z,5.62
2019-03-08T02:03:24.567Z,5.62
2019-03-08T02:05:54.196Z,5.35
2019-03-08T02:08:23.791Z,5.30
2019-03-08T02:10:53.495Z,5.30
2019-03-08T02:13:23.122Z,5.42
2019-03-08T02:15:52.815Z,5.00
2019-03-08T02:18:22.435Z,5.50
2019-03-08T02:20:52.349Z,5.15
2019-03-08T02:23:22.053Z,5.33
2019-03-08T02:25:51.968Z,4.85
2019-03-08T02:28:21.670Z,5.28
2019-03-08T02:30:51.394Z,5.25
2019-03-08T02:33:21.108Z,5.17
2019-03-08T02:35:50.724Z,5.00
2019-03-08T02:38:20.415Z,5.03
2019-03-08T02:40:50.040Z,5.12
2019-03-08T02:43:19.976Z,4.90
2019-03-08T02:45:49.559Z,4.90
2019-03-08T02:48:19.261Z,5.17
2019-03-08T02:50:48.878Z,4.90
2019-03-08T02:53:18.781Z,5.22
2019-03-08T02:55:48.424Z,5.20
2019-03-08T02:58:18.101Z,5.47
2019-03-08T03:00:48.250Z,5.00
2019-03-08T03:03:18.571Z,4.83
2019-03-08T03:05:48.462Z,4.67
2019-03-08T03:08:18.084Z,4.95
2019-03-08T03:10:47.783Z,5.05
2019-03-08T03:13:17.406Z,5.10
2019-03-08T03:15:47.107Z,5.25
2019-03-08T03:18:16.816Z,5.50
2019-03-08T03:20:46.443Z,5.33
2019-03-08T03:23:16.129Z,5.30
2019-03-08T03:25:45.775Z,5.40
2019-03-08T03:28:15.444Z,5.40
2019-03-08T03:30:45.078Z,5.35
2019-03-08T03:33:15.076Z,5.28
2019-03-08T03:35:44.711Z,5.80
2019-03-08T03:38:14.389Z,5.58
2019-03-08T03:40:44.026Z,5.62
2019-03-08T03:43:13.715Z,5.75
2019-03-08T03:45:43.431Z,4.92
2019-03-08T03:48:13.053Z,5.60
2019-03-08T03:50:42.753Z,5.33
2019-03-08T03:53:12.367Z,5.47
2019-03-08T03:55:42.075Z,5.65
2019-03-08T03:58:11.733Z,5.40
2019-03-08T04:00:41.585Z,5.75
2019-03-08T04:03:11.225Z,6.10
2019-03-08T04:05:40.921Z,5.65
2019-03-08T04:08:10.523Z,5.22
2019-03-08T04:10:40.152Z,6.15
2019-03-08T04:13:09.835Z,5.15
2019-03-08T04:15:39.464Z,4.90
2019-03-08T04:18:09.156Z,5.40
2019-03-08T04:20:38.796Z,5.58
2019-03-08T04:23:08.491Z,5.60
2019-03-08T04:25:38.185Z,5.22
2019-03-08T04:28:08.008Z,4.97
2019-03-08T04:30:37.778Z,5.17
2019-03-08T04:33:07.460Z,5.28
2019-03-08T04:35:37.132Z,5.80
2019-03-08T04:38:06.741Z,5.03
2019-03-08T04:40:36.463Z,5.22
2019-03-08T04:43:06.075Z,5.45
2019-03-08T04:45:35.778Z,5.10
2019-03-08T04:48:05.396Z,5.40
2019-03-08T04:50:35.090Z,5.25
2019-03-08T04:53:04.800Z,5.45
2019-03-08T04:55:34.725Z,4.95
2019-03-08T04:58:04.348Z,5.20
2019-03-08T05:00:34.044Z,5.05
2019-03-08T05:03:03.743Z,4.72
2019-03-08T05:05:33.371Z,4.80
2019-03-08T05:08:03.112Z,4.97
2019-03-08T05:10:32.697Z,5.20
2019-03-08T05:13:02.393Z,5.00
2019-03-08T05:15:32.023Z,4.97
2019-03-08T05:18:01.808Z,5.12
2019-03-08T05:20:31.614Z,4.70
2019-03-08T05:23:01.539Z,5.20
2019-03-08T05:25:30.991Z,5.42
2019-03-08T05:28:00.855Z,5.53
2019-03-08T05:30:30.578Z,5.12
2019-03-08T05:33:00.160Z,5.60
2019-03-08T05:35:29.895Z,5.45
2019-03-08T05:37:59.503Z,5.40
2019-03-08T05:40:29.219Z,5.67
2019-03-08T05:42:58.829Z,5.53
2019-03-08T05:45:28.782Z,5.70
2019-03-08T05:47:58.463Z,4.92
2019-03-08T05:50:28.369Z,5.92
2019-03-08T05:52:57.975Z,5.22
2019-03-08T05:55:27.675Z,5.30
2019-03-08T05:57:57.342Z,5.75
2019-03-08T06:00:32.952Z,5.97
2019-03-08T06:03:00.701Z,6.55
2019-03-08T06:05:30.306Z,7.25
2019-03-08T06:07:59.950Z,7.80
2019-03-08T06:10:30.606Z,9.60
2019-03-08T06:13:00.369Z,11.28
2019-03-08T06:15:30.107Z,13.43
2019-03-08T06:17:59.995Z,18.95
2019-03-08T06:20:29.642Z,19.32
2019-03-08T06:22:59.304Z,21.40
2019-03-08T06:25:28.947Z,21.35
2019-03-08T06:27:58.629Z,23.00
2019-03-08T06:30:28.349Z,25.35
2019-03-08T06:32:57.967Z,23.30
2019-03-08T06:35:27.670Z,23.05
2019-03-08T06:37:57.464Z,21.77
2019-03-08T06:40:27.238Z,20.48
2019-03-08T06:42:56.971Z,21.20
2019-03-08T06:45:26.845Z,20.43
2019-03-08T06:47:57.839Z,19.95
2019-03-08T06:50:27.574Z,19.70
2019-03-08T06:52:57.682Z,18.98
2019-03-08T06:55:27.795Z,19.20
2019-03-08T06:58:02.171Z,18.25
2019-03-08T07:00:36.247Z,18.95
2019-03-08T07:03:06.556Z,19.05
2019-03-08T07:05:36.277Z,17.57
2019-03-08T07:08:05.933Z,18.45
2019-03-08T07:10:35.600Z,17.12
2019-03-08T07:13:05.225Z,17.52
2019-03-08T07:15:34.954Z,18.15
2019-03-08T07:18:12.248Z,16.75
2019-03-08T07:21:00.729Z,17.65
2019-03-08T07:23:43.818Z,17.32
2019-03-08T07:26:38.442Z,16.77
2019-03-08T07:29:19.812Z,17.07
2019-03-08T07:32:05.583Z,18.02
2019-03-08T07:35:02.760Z,20.77
2019-03-08T07:38:03.603Z,19.62
2019-03-08T07:41:01.071Z,19.98
2019-03-08T07:44:04.611Z,25.88
2019-03-08T07:47:02.004Z,21.48
2019-03-08T07:49:48.038Z,20.85
2019-03-08T07:52:32.819Z,19.85
2019-03-08T07:55:36.457Z,20.40
2019-03-08T07:58:23.728Z,18.02
2019-03-08T08:01:01.399Z,17.27
2019-03-08T08:03:36.619Z,17.70
2019-03-08T08:06:15.428Z,17.12
2019-03-08T08:09:06.909Z,16.17
2019-03-08T08:12:01.488Z,15.88
2019-03-08T08:14:48.784Z,15.60
2019-03-08T08:17:43.297Z,16.52
2019-03-08T08:20:38.234Z,15.80
2019-03-08T08:23:34.233Z,15.08
2019-03-08T08:26:31.920Z,14.65
2019-03-08T08:29:17.775Z,14.40
2019-03-08T08:32:06.836Z,13.93
2019-03-08T08:35:04.636Z,14.35
2019-03-08T08:37:44.777Z,13.50
2019-03-08T08:40:23.395Z,13.80
2019-03-08T08:43:12.956Z,13.75
2019-03-08T08:46:01.386Z,13.28
2019-03-08T08:49:00.208Z,14.15
2019-03-08T08:51:54.446Z,13.50
2019-03-08T08:55:06.646Z,13.13
2019-03-08T08:58:01.296Z,12.80
2019-03-08T09:00:46.776Z,12.73
2019-03-08T09:03:50.536Z,13.30
2019-03-08T09:06:37.804Z,12.85
2019-03-08T09:09:27.622Z,12.25
2019-03-08T09:12:14.499Z,12.50
2019-03-08T09:15:02.941Z,13.10
2019-03-08T09:17:47.432Z,12.00
2019-03-08T09:20:34.426Z,10.82
2019-03-08T09:23:12.338Z,11.08
2019-03-08T09:25:54.225Z,11.80
2019-03-08T09:28:37.133Z,11.15
2019-03-08T09:31:37.930Z,10.93
2019-03-08T09:34:18.077Z,10.40
2019-03-08T09:37:06.576Z,11.08
2019-03-08T09:39:57.934Z,10.35
2019-03-08T09:42:44.787Z,11.40
2019-03-08T09:45:39.175Z,10.75
2019-03-08T09:48:36.775Z,11.80
2019-03-08T09:51:25.219Z,12.35
2019-03-08T09:54:18.228Z,10.30
2019-03-08T09:57:10.622Z,10.88
2019-03-08T09:59:57.586Z,11.00
2019-03-08T10:02:40.662Z,10.70
2019-03-08T10:05:27.373Z,11.05
2019-03-08T10:08:18.647Z,10.82
2019-03-08T10:11:02.500Z,10.58
2019-03-08T10:13:51.074Z,10.38
2019-03-08T10:16:27.975Z,10.65
2019-03-08T10:19:19.168Z,10.53
2019-03-08T10:21:58.458Z,10.78
2019-03-08T10:24:34.686Z,11.48
2019-03-08T10:27:37.610Z,10.80
2019-03-08T10:30:31.969Z,10.53
2019-03-08T10:33:22.573Z,9.78
2019-03-08T10:36:08.865Z,9.75
2019-03-08T10:38:50.154Z,10.55
2019-03-08T10:41:35.316Z,9.75
2019-03-08T10:44:35.899Z,9.53
2019-03-08T10:47:18.464Z,9.18
2019-03-08T10:50:15.909Z,10.23
2019-03-08T10:52:50.795Z,9.78
2019-03-08T10:55:48.418Z,9.48
2019-03-08T10:58:35.393Z,9.40
2019-03-08T11:01:42.039Z,9.63
2019-03-08T11:04:30.452Z,8.73
2019-03-08T11:07:16.144Z,9.45
2019-03-08T11:10:02.344Z,9.18
2019-03-08T11:12:53.511Z,9.73
2019-03-08T11:15:41.946Z,8.83
2019-03-08T11:18:33.635Z,8.85
2019-03-08T11:21:25.143Z,8.78
2019-03-08T11:24:19.496Z,9.08
2019-03-08T11:27:25.716Z,8.95
2019-03-08T11:30:14.150Z,9.00
2019-03-08T11:33:20.709Z,8.48
2019-03-08T11:36:09.359Z,8.85
2019-03-08T11:38:52.945Z,9.00
2019-03-08T11:41:29.602Z,9.05
2019-03-08T11:44:24.257Z,9.45
2019-03-08T11:47:12.732Z,9.00
2019-03-08T11:49:50.195Z,9.93
2019-03-08T11:52:34.908Z,9.18
2019-03-08T11:55:23.581Z,10.28
2019-03-08T11:58:14.756Z,9.55
2019-03-08T12:01:03.218Z,9.03
2019-03-08T12:03:51.666Z,8.43
2019-03-08T12:06:55.116Z,7.97
2019-03-08T12:09:46.625Z,8.83
2019-03-08T12:12:33.783Z,8.48
2019-03-08T12:15:28.412Z,8.65
2019-03-08T12:18:16.860Z,8.70
2019-03-08T12:21:08.320Z,8.28
2019-03-08T12:23:59.886Z,8.30
2019-03-08T12:26:43.142Z,8.43
2019-03-08T12:29:43.941Z,8.80
2019-03-08T12:32:31.204Z,8.53
2019-03-08T12:35:25.874Z,7.85
2019-03-08T12:38:14.340Z,7.95
2019-03-08T12:41:01.543Z,9.08
2019-03-08T12:43:50.099Z,8.50
2019-03-08T12:46:29.153Z,8.13
2019-03-08T12:49:05.235Z,8.00
2019-03-08T12:51:46.488Z,8.00
2019-03-08T12:54:40.980Z,7.72
2019-03-08T12:57:29.424Z,7.90
2019-03-08T13:00:09.783Z,6.72
2019-03-08T13:02:56.815Z,7.12
2019-03-08T13:05:43.859Z,8.28
2019-03-08T13:08:35.499Z,7.78
2019-03-08T13:11:05.240Z,7.70
2019-03-08T13:13:36.481Z,7.70
2019-03-08T13:16:06.309Z,7.53
2019-03-08T13:18:35.928Z,7.80
2019-03-08T13:21:05.626Z,7.50
2019-03-08T13:23:35.237Z,7.60
2019-03-08T13:26:04.954Z,7.90
2019-03-08T13:28:34.556Z,7.95
2019-03-08T13:31:04.472Z,7.10
2019-03-08T13:33:34.083Z,6.83
2019-03-08T13:36:03.786Z,6.72
2019-03-08T13:38:33.483Z,7.22
2019-03-08T13:41:03.200Z,7.40
2019-03-08T13:43:32.920Z,6.95
2019-03-08T13:46:02.546Z,7.35
2019-03-08T13:48:32.134Z,6.70
2019-03-08T13:51:01.754Z,6.80
2019-03-08T13:53:31.451Z,6.50
2019-03-08T13:56:01.231Z,7.62
2019-03-08T13:58:30.968Z,7.17
2019-03-08T14:01:00.610Z,7.25
2019-03-08T14:03:30.221Z,6.95
2019-03-08T14:05:59.907Z,6.92
2019-03-08T14:08:29.703Z,6.47
2019-03-08T14:10:59.423Z,6.42
2019-03-08T14:13:29.058Z,6.78
2019-03-08T14:15:58.742Z,6.60
2019-03-08T14:18:28.172Z,6.62
2019-03-08T14:20:57.866Z,6.40
2019-03-08T14:23:27.492Z,6.12
2019-03-08T14:25:57.302Z,6.22
2019-03-08T14:28:27.156Z,6.37
2019-03-08T14:31:22.702Z,6.28
2019-03-08T14:33:52.672Z,6.03
2019-03-08T14:36:22.251Z,6.50
2019-03-08T14:38:51.944Z,5.58
2019-03-08T14:41:30.697Z,6.12
2019-03-08T14:44:05.425Z,6.58
2019-03-08T14:46:45.489Z,6.25
2019-03-08T14:49:15.185Z,6.37
2019-03-08T14:51:48.312Z,6.20
2019-03-08T14:54:17.240Z,6.28
2019-03-08T14:56:46.772Z,6.28
2019-03-08T14:59:16.880Z,6.05
2019-03-08T15:01:46.611Z,6.50
2019-03-08T15:04:16.296Z,7.75
2019-03-08T15:06:46.102Z,7.42
2019-03-08T15:09:15.818Z,7.30
2019-03-08T15:11:45.633Z,7.55
2019-03-08T15:14:15.403Z,6.42
2019-03-08T15:16:45.060Z,7.42
2019-03-08T15:19:14.705Z,6.95
2019-03-08T15:21:48.421Z,6.67
2019-03-08T15:24:15.752Z,7.42
2019-03-08T15:26:45.442Z,5.75
2019-03-08T15:29:15.068Z,4.87
2019-03-08T15:31:44.804Z,5.00
2019-03-08T15:34:21.026Z,5.60
2019-03-08T15:36:45.916Z,5.50
2019-03-08T15:39:15.732Z,6.30
2019-03-08T15:41:45.537Z,6.10
2019-03-08T15:44:15.328Z,5.90
2019-03-08T15:46:45.121Z,5.53
2019-03-08T15:49:14.780Z,5.20
2019-03-08T15:51:44.405Z,5.80
2019-03-08T15:54:14.114Z,6.15
2019-03-08T15:56:43.732Z,5.72
2019-03-08T15:59:13.423Z,5.08
2019-03-08T16:01:43.054Z,5.60
2019-03-08T16:04:13.068Z,5.45
2019-03-08T16:06:43.803Z,5.50
2019-03-08T16:09:14.210Z,5.55
2019-03-08T16:11:45.989Z,5.33
2019-03-08T16:14:15.275Z,5.50
2019-03-08T16:16:44.972Z,6.35
2019-03-08T16:19:14.724Z,5.65
2019-03-08T16:21:46.730Z,5.00
2019-03-08T16:24:15.557Z,5.47
2019-03-08T16:26:45.291Z,5.10
2019-03-08T16:29:14.862Z,6.35
2019-03-08T16:31:50.277Z,5.12
2019-03-08T16:34:20.125Z,5.12
2019-03-08T16:37:07.999Z,5.22
2019-03-08T16:40:02.216Z,4.90
2019-03-08T16:42:53.449Z,5.35
2019-03-08T16:45:36.650Z,5.20
2019-03-08T16:48:25.157Z,4.95
2019-03-08T16:51:22.968Z,4.90
2019-03-08T16:53:58.167Z,4.65
2019-03-08T16:56:50.296Z,4.85
2019-03-08T16:59:25.607Z,4.97
2019-03-08T17:02:14.089Z,5.35
2019-03-08T17:05:11.574Z,4.95
2019-03-08T17:08:02.879Z,4.53
2019-03-08T17:10:49.908Z,5.05
2019-03-08T17:13:44.232Z,4.87
2019-03-08T17:16:37.992Z,5.00
2019-03-08T17:19:17.819Z,4.08
2019-03-08T17:22:05.293Z,4.60
2019-03-08T17:25:12.021Z,5.08
2019-03-08T17:28:03.473Z,5.42
2019-03-08T17:30:58.321Z,4.92
2019-03-08T17:33:38.597Z,5.42
2019-03-08T17:36:29.874Z,5.08
2019-03-08T17:39:07.139Z,5.30
2019-03-08T17:42:01.340Z,6.00
2019-03-08T17:44:50.247Z,5.90
2019-03-08T17:47:28.002Z,6.08
2019-03-08T17:50:16.028Z,6.50
2019-03-08T17:53:01.783Z,7.00
2019-03-08T17:55:53.265Z,7.12
2019-03-08T17:58:50.837Z,6.42
2019-03-08T18:01:45.512Z,6.62
2019-03-08T18:04:25.412Z,6.67
2019-03-08T18:07:13.758Z,6.37
2019-03-08T18:10:01.820Z,6.17
2019-03-08T18:12:53.771Z,6.90
2019-03-08T18:15:53.337Z,6.70
2019-03-08T18:18:40.289Z,6.87
2019-03-08T18:21:34.348Z,6.78
2019-03-08T18:24:23.809Z,6.28
2019-03-08T18:27:05.004Z,6.33
2019-03-08T18:29:53.552Z,6.65
2019-03-08T18:32:35.252Z,6.15
2019-03-08T18:35:22.737Z,6.25
2019-03-08T18:38:11.580Z,6.53
2019-03-08T18:41:00.594Z,7.33
2019-03-08T18:44:04.076Z,6.70
2019-03-08T18:47:02.169Z,5.67
2019-03-08T18:49:53.670Z,6.42
2019-03-08T18:52:42.449Z,6.12
2019-03-08T18:55:35.149Z,6.40
2019-03-08T18:58:27.021Z,6.70
2019-03-08T19:01:17.419Z,6.87
2019-03-08T19:04:15.052Z,6.40
2019-03-08T19:07:14.318Z,6.45
2019-03-08T19:09:52.227Z,6.17
2019-03-08T19:12:59.025Z,6.50
2019-03-08T19:15:46.388Z,6.92
2019-03-08T19:18:34.844Z,6.33
2019-03-08T19:21:25.152Z,6.42
2019-03-08T19:24:20.589Z,6.62
2019-03-08T19:27:09.000Z,6.60
2019-03-08T19:30:09.576Z,6.12
2019-03-08T19:32:54.889Z,6.72
2019-03-08T19:35:42.356Z,6.58
2019-03-08T19:38:40.051Z,6.75
2019-03-08T19:41:21.926Z,6.90
2019-03-08T19:44:08.468Z,7.33
2019-03-08T19:47:05.815Z,7.08
2019-03-08T19:49:57.026Z,6.78
2019-03-08T19:52:42.143Z,6.95
2019-03-08T19:55:22.319Z,7.15
2019-03-08T19:58:10.790Z,7.25
2019-03-08T20:01:01.248Z,6.95
2019-03-08T20:03:52.489Z,7.00
2019-03-08T20:06:39.891Z,6.35
2019-03-08T20:09:26.992Z,6.40
2019-03-08T20:12:24.687Z,7.17
2019-03-08T20:15:21.246Z,6.58
2019-03-08T20:18:04.470Z,7.35
2019-03-08T20:20:55.774Z,7.17
2019-03-08T20:23:44.339Z,7.20
2019-03-08T20:26:32.790Z,6.85
2019-03-08T20:29:36.285Z,6.55
2019-03-08T20:32:30.890Z,6.50
2019-03-08T20:35:22.083Z,6.42
2019-03-08T20:38:10.541Z,6.30
2019-03-08T20:40:57.880Z,6.78
2019-03-08T20:43:55.567Z,6.25
2019-03-08T20:46:53.102Z,7.08
2019-03-08T20:49:22.753Z,6.92
2019-03-08T20:51:52.492Z,6.87
2019-03-08T20:54:22.356Z,6.53
2019-03-08T20:56:52.340Z,7.22
2019-03-08T20:59:21.954Z,5.95
2019-03-08T21:01:51.648Z,7.35
2019-03-08T21:04:21.274Z,6.58
2019-03-08T21:06:51.065Z,6.80
2019-03-08T21:09:20.956Z,7.20
2019-03-08T21:11:50.692Z,6.80
2019-03-08T21:14:20.326Z,6.58
2019-03-08T21:16:50.025Z,6.72
2019-03-08T21:19:19.721Z,6.10
2019-03-08T21:21:49.739Z,6.97
2019-03-08T21:24:19.372Z,6.47
2019-03-08T21:26:49.066Z,6.70
2019-03-08T21:29:18.774Z,6.17
2019-03-08T21:31:48.401Z,6.70
2019-03-08T21:34:18.087Z,6.37
2019-03-08T21:36:47.728Z,6.70
2019-03-08T21:39:17.412Z,6.12
2019-03-08T21:41:47.043Z,6.12
2019-03-08T21:44:16.732Z,6.67
2019-03-08T21:46:46.451Z,6.75
2019-03-08T21:49:16.151Z,6.42
2019-03-08T21:51:45.872Z,6.47
2019-03-08T21:54:15.485Z,6.53
2019-03-08T21:56:45.188Z,5.97
2019-03-08T21:59:14.823Z,6.75
2019-03-08T22:01:44.449Z,6.97
2019-03-08T22:04:20.388Z,6.53
2019-03-08T22:06:49.959Z,6.70
2019-03-08T22:09:25.952Z,6.85
2019-03-08T22:11:55.687Z,6.53
2019-03-08T22:14:25.340Z,6.87
2019-03-08T22:16:55.054Z,7.05
2019-03-08T22:19:24.879Z,6.37
2019-03-08T22:21:54.576Z,6.37
2019-03-08T22:24:24.300Z,6.30
2019-03-08T22:26:53.947Z,6.42
2019-03-08T22:29:23.707Z,6.35
2019-03-08T22:31:53.348Z,6.60
2019-03-08T22:34:23.029Z,6.67
2019-03-08T22:36:52.662Z,6.25
2019-03-08T22:39:22.349Z,6.20
2019-03-08T22:41:51.964Z,6.40
2019-03-08T22:44:21.580Z,6.25
2019-03-08T22:46:51.279Z,6.55
2019-03-08T22:49:20.888Z,5.92
2019-03-08T22:51:50.606Z,5.97
2019-03-08T22:54:20.214Z,5.62
2019-03-08T22:56:49.926Z,6.03
2019-03-08T22:59:19.628Z,6.20
2019-03-08T23:01:51.726Z,6.33
2019-03-08T23:04:21.425Z,6.72
2019-03-08T23:06:51.019Z,6.05
2019-03-08T23:09:21.004Z,6.42
2019-03-08T23:11:50.747Z,5.92
2019-03-08T23:14:20.456Z,5.95
2019-03-08T23:16:50.165Z,6.25
2019-03-08T23:19:19.820Z,5.78
2019-03-08T23:21:49.479Z,6.15
2019-03-08T23:24:19.100Z,5.70
2019-03-08T23:27:07.569Z,6.12
2019-03-08T23:30:05.488Z,5.83
2019-03-08T23:32:47.243Z,6.45
2019-03-08T23:35:16.965Z,5.85
2019-03-08T23:37:46.628Z,6.10
2019-03-08T23:40:16.451Z,5.55
2019-03-08T23:42:46.146Z,5.78
2019-03-08T23:45:15.773Z,5.75
2019-03-08T23:47:45.477Z,6.12
2019-03-08T23:50:15.099Z,6.33
2019-03-08T23:52:45.000Z,6.03
2019-03-08T23:55:14.611Z,6.08
2019-03-08T23:57:44.324Z,5.67
